createdAt,value
2022-12-31T00:01:29.315Z,14.16
2022-12-31T00:03:32.423Z,14.16
2022-12-31T00:05:37.280Z,14.14
2022-12-31T00:09:41.943Z,14.20
2022-12-31T00:11:44.876Z,14.19
2022-12-31T00:13:48.556Z,14.18
2022-12-31T00:15:51.479Z,14.15
2022-12-31T00:17:55.882Z,14.15
2022-12-31T00:19:58.792Z,14.14
2022-12-31T00:22:03.844Z,14.12
2022-12-31T00:24:07.990Z,14.13
2022-12-31T00:26:12.583Z,14.04
2022-12-31T00:28:15.544Z,14.08
2022-12-31T00:30:18.774Z,14.08
2022-12-31T00:32:23.096Z,14.06
2022-12-31T00:34:27.528Z,13.97
2022-12-31T00:36:32.406Z,14.06
2022-12-31T00:38:36.306Z,14.00
2022-12-31T00:40:39.230Z,13.90
2022-12-31T00:42:42.384Z,13.84
2022-12-31T00:44:45.639Z,13.75
2022-12-31T00:46:48.820Z,13.71
2022-12-31T00:48:51.997Z,13.75
2022-12-31T00:50:57.905Z,13.64
2022-12-31T00:53:01.129Z,13.68
2022-12-31T00:55:04.252Z,13.61
2022-12-31T00:57:07.224Z,13.66
2022-12-31T00:59:10.172Z,13.64
2022-12-31T01:01:16.223Z,13.59
2022-12-31T01:03:19.289Z,13.60
2022-12-31T01:05:22.392Z,13.56
2022-12-31T01:07:26.784Z,13.48
2022-12-31T01:09:29.972Z,13.43
2022-12-31T01:11:31.923Z,13.35
2022-12-31T01:13:35.064Z,13.34
2022-12-31T01:15:39.290Z,13.33
2022-12-31T01:17:42.165Z,13.39
2022-12-31T01:19:45.267Z,13.27
2022-12-31T01:21:49.295Z,13.40
2022-12-31T01:23:53.799Z,13.39
2022-12-31T01:25:56.801Z,13.41
2022-12-31T01:27:59.959Z,13.42
2022-12-31T01:30:03.095Z,13.38
2022-12-31T01:32:06.756Z,13.46
2022-12-31T01:34:10.320Z,13.51
2022-12-31T01:36:19.044Z,13.50
2022-12-31T01:38:26.670Z,13.54
2022-12-31T01:40:31.741Z,13.62
2022-12-31T01:42:34.759Z,13.63
2022-12-31T01:44:53.885Z,13.65
2022-12-31T01:46:59.076Z,13.71
2022-12-31T01:49:05.140Z,13.73
2022-12-31T01:51:10.489Z,13.77
2022-12-31T01:53:13.645Z,13.85
2022-12-31T01:55:20.671Z,13.84
2022-12-31T01:57:25.668Z,13.85
2022-12-31T01:59:29.843Z,13.84
2022-12-31T02:01:33.732Z,13.81
2022-12-31T02:03:37.052Z,13.83
2022-12-31T02:09:15.114Z,13.89
2022-12-31T02:11:25.476Z,13.95
2022-12-31T02:13:31.257Z,13.93
2022-12-31T02:15:39.990Z,13.96
2022-12-31T02:17:50.499Z,14.02
2022-12-31T02:20:25.679Z,14.00
2022-12-31T02:22:43.045Z,14.09
2022-12-31T02:25:08.331Z,14.08
2022-12-31T02:27:14.272Z,14.12
2022-12-31T02:29:58.947Z,14.16
2022-12-31T02:32:08.793Z,14.29
2022-12-31T02:34:15.308Z,14.37
2022-12-31T02:36:21.328Z,14.40
2022-12-31T02:38:27.316Z,14.55
2022-12-31T02:40:30.461Z,14.61
2022-12-31T02:42:33.433Z,14.73
2022-12-31T02:44:38.432Z,14.80
2022-12-31T02:46:44.134Z,14.83
2022-12-31T02:48:50.720Z,14.85
2022-12-31T02:50:59.622Z,14.90
2022-12-31T02:53:12.473Z,14.96
2022-12-31T02:55:19.448Z,15.02
2022-12-31T02:57:28.292Z,14.98
2022-12-31T02:59:52.298Z,15.05
2022-12-31T03:02:14.955Z,15.07
2022-12-31T03:04:36.592Z,15.04
2022-12-31T03:06:39.672Z,15.01
2022-12-31T03:08:57.655Z,14.99
2022-12-31T03:11:20.480Z,14.98
2022-12-31T03:13:22.594Z,14.97
2022-12-31T03:15:27.484Z,14.99
2022-12-31T03:17:30.369Z,14.89
2022-12-31T03:19:52.064Z,14.91
2022-12-31T03:22:12.385Z,14.87
2022-12-31T03:24:33.247Z,14.83
2022-12-31T03:26:36.391Z,14.77
2022-12-31T03:28:40.506Z,14.77
2022-12-31T03:30:45.211Z,14.83
2022-12-31T03:32:49.490Z,14.74
2022-12-31T03:34:54.170Z,14.74
2022-12-31T03:36:57.167Z,14.78
2022-12-31T03:39:00.159Z,14.76
2022-12-31T03:41:03.332Z,14.79
2022-12-31T03:43:06.577Z,14.85
2022-12-31T03:45:12.637Z,14.80
2022-12-31T03:47:15.853Z,14.78
2022-12-31T03:49:18.807Z,14.77
2022-12-31T03:51:23.206Z,14.78
2022-12-31T03:53:27.394Z,14.79
2022-12-31T03:55:30.508Z,14.81
2022-12-31T03:57:33.525Z,14.83
2022-12-31T03:59:36.434Z,14.82
2022-12-31T04:01:39.473Z,14.83
2022-12-31T04:03:42.706Z,14.97
2022-12-31T04:05:45.529Z,14.93
2022-12-31T04:07:52.115Z,14.90
2022-12-31T04:09:55.055Z,14.97
2022-12-31T04:11:57.959Z,15.08
2022-12-31T04:14:01.187Z,15.11
2022-12-31T04:16:04.192Z,15.13
2022-12-31T04:18:07.973Z,15.15
2022-12-31T04:20:11.872Z,15.18
2022-12-31T04:22:14.913Z,15.28
2022-12-31T04:24:19.119Z,15.27
2022-12-31T04:26:22.058Z,15.32
2022-12-31T04:28:25.245Z,15.44
2022-12-31T04:30:28.172Z,15.43
2022-12-31T04:32:32.166Z,15.55
2022-12-31T04:34:37.302Z,15.51
2022-12-31T04:36:40.406Z,15.50
2022-12-31T04:38:43.485Z,15.49
2022-12-31T04:41:01.955Z,15.51
2022-12-31T04:43:04.851Z,15.51
2022-12-31T04:45:09.322Z,15.55
2022-12-31T04:47:12.786Z,15.49
2022-12-31T04:49:17.229Z,15.44
2022-12-31T04:51:21.034Z,15.35
2022-12-31T04:53:25.085Z,15.38
2022-12-31T04:55:28.183Z,15.37
2022-12-31T04:57:32.428Z,15.40
2022-12-31T04:59:35.396Z,15.46
2022-12-31T05:01:40.034Z,15.40
2022-12-31T05:03:43.384Z,15.43
2022-12-31T05:05:46.281Z,15.44
2022-12-31T05:07:49.514Z,15.51
2022-12-31T05:09:52.392Z,15.52
2022-12-31T05:11:55.609Z,15.53
2022-12-31T05:13:59.995Z,15.64
2022-12-31T05:16:03.826Z,15.73
2022-12-31T05:18:07.212Z,15.77
2022-12-31T05:20:10.728Z,15.80
2022-12-31T05:22:30.359Z,15.82
2022-12-31T05:24:33.374Z,15.99
2022-12-31T05:26:36.638Z,16.06
2022-12-31T05:28:40.363Z,16.18
2022-12-31T05:30:45.492Z,16.25
2022-12-31T05:32:49.480Z,16.34
2022-12-31T05:34:53.801Z,16.33
2022-12-31T05:36:56.963Z,16.33
2022-12-31T05:38:59.855Z,16.37
2022-12-31T05:41:03.736Z,16.41
2022-12-31T05:43:06.833Z,16.40
2022-12-31T05:45:13.443Z,16.51
2022-12-31T05:47:18.046Z,16.53
2022-12-31T05:49:20.994Z,16.54
2022-12-31T05:51:23.889Z,16.54
2022-12-31T05:53:26.764Z,16.62
2022-12-31T05:55:29.599Z,16.61
2022-12-31T05:57:32.495Z,16.74
2022-12-31T05:59:35.826Z,16.74
2022-12-31T06:01:38.799Z,16.72
2022-12-31T06:03:43.956Z,16.83
2022-12-31T06:05:47.112Z,16.83
2022-12-31T06:07:49.977Z,16.80
2022-12-31T06:09:53.074Z,16.90
2022-12-31T06:11:55.997Z,16.92
2022-12-31T06:13:59.312Z,16.92
2022-12-31T06:16:06.411Z,16.98
2022-12-31T06:18:09.329Z,16.97
2022-12-31T06:20:13.727Z,16.95
2022-12-31T06:22:16.735Z,16.93
2022-12-31T06:24:19.985Z,16.89
2022-12-31T06:26:23.177Z,16.92
2022-12-31T06:28:27.320Z,16.98
2022-12-31T06:30:30.879Z,17.03
2022-12-31T06:32:35.096Z,17.06
2022-12-31T06:34:39.164Z,17.07
2022-12-31T06:36:43.493Z,17.11
2022-12-31T06:38:46.780Z,17.10
2022-12-31T06:40:49.735Z,17.10
2022-12-31T06:42:59.503Z,17.09
2022-12-31T06:45:03.017Z,17.17
2022-12-31T06:47:06.648Z,17.15
2022-12-31T06:49:09.786Z,17.14
2022-12-31T06:51:17.219Z,17.14
2022-12-31T06:53:21.926Z,17.14
2022-12-31T06:55:25.641Z,17.21
2022-12-31T06:57:29.108Z,17.23
2022-12-31T06:59:32.643Z,17.16
2022-12-31T07:01:45.338Z,17.17
2022-12-31T07:03:56.116Z,17.17
2022-12-31T07:06:05.371Z,17.17
2022-12-31T07:08:19.260Z,17.18
2022-12-31T07:10:31.061Z,17.26
2022-12-31T07:12:43.769Z,17.26
2022-12-31T07:14:48.951Z,17.25
2022-12-31T07:16:58.903Z,17.29
2022-12-31T07:19:12.114Z,17.28
2022-12-31T07:21:17.151Z,17.29
2022-12-31T07:23:20.652Z,17.21
2022-12-31T07:25:25.907Z,17.18
2022-12-31T07:27:43.113Z,17.27
2022-12-31T07:29:59.100Z,17.25
2022-12-31T07:32:10.488Z,17.42
2022-12-31T07:34:21.511Z,17.41
2022-12-31T07:36:35.724Z,17.41
2022-12-31T07:38:42.188Z,17.38
2022-12-31T07:40:57.709Z,17.41
2022-12-31T07:43:08.827Z,17.39
2022-12-31T07:45:18.062Z,17.46
2022-12-31T07:47:24.359Z,17.52
2022-12-31T07:49:29.183Z,17.52
2022-12-31T07:51:35.608Z,17.48
2022-12-31T07:53:38.732Z,17.49
2022-12-31T07:55:41.589Z,17.44
2022-12-31T07:57:51.295Z,17.47
2022-12-31T08:00:05.327Z,17.49
2022-12-31T08:02:22.436Z,17.45
2022-12-31T08:04:29.825Z,17.45
2022-12-31T08:06:39.860Z,17.47
2022-12-31T08:08:50.460Z,17.47
2022-12-31T08:11:01.371Z,17.52
2022-12-31T08:13:11.631Z,17.50
2022-12-31T08:15:17.947Z,17.55
2022-12-31T08:17:22.044Z,17.48
2022-12-31T08:19:26.883Z,17.46
2022-12-31T08:21:39.565Z,17.49
2022-12-31T08:23:48.736Z,17.52
2022-12-31T08:26:04.177Z,17.51
2022-12-31T08:28:16.629Z,17.51
2022-12-31T08:30:22.007Z,17.53
2022-12-31T08:32:27.882Z,17.52
2022-12-31T08:34:38.070Z,17.57
2022-12-31T08:36:47.533Z,17.57
2022-12-31T08:38:56.078Z,17.63
2022-12-31T08:41:05.284Z,17.62
2022-12-31T08:43:22.606Z,17.66
2022-12-31T08:45:29.970Z,17.65
2022-12-31T08:47:40.639Z,17.70
2022-12-31T08:49:44.120Z,17.72
2022-12-31T08:51:56.387Z,17.76
2022-12-31T08:54:00.980Z,17.73
2022-12-31T08:56:09.034Z,17.74
2022-12-31T08:58:23.371Z,17.77
2022-12-31T09:00:28.012Z,17.83
2022-12-31T09:03:10.026Z,17.87
2022-12-31T09:05:20.396Z,17.90
2022-12-31T09:07:30.036Z,17.94
2022-12-31T09:09:39.864Z,17.99
2022-12-31T09:11:51.035Z,17.97
2022-12-31T09:14:10.246Z,17.99
2022-12-31T09:16:16.948Z,17.95
2022-12-31T09:18:20.913Z,17.94
2022-12-31T09:20:36.306Z,17.89
2022-12-31T09:22:45.451Z,17.90
2022-12-31T09:24:49.712Z,17.94
2022-12-31T09:27:00.951Z,17.92
2022-12-31T09:29:13.988Z,17.92
2022-12-31T09:31:20.550Z,17.99
2022-12-31T09:33:35.361Z,17.99
2022-12-31T09:35:40.248Z,17.94
2022-12-31T09:37:49.269Z,17.94
2022-12-31T09:39:52.238Z,18.00
2022-12-31T09:42:12.271Z,17.97
2022-12-31T09:45:09.561Z,18.01
2022-12-31T09:47:51.490Z,18.08
2022-12-31T09:50:36.150Z,18.09
2022-12-31T09:52:47.645Z,18.03
2022-12-31T09:54:54.120Z,18.05
2022-12-31T09:57:22.192Z,18.06
2022-12-31T09:59:31.372Z,18.03
2022-12-31T10:01:46.096Z,18.05
2022-12-31T10:04:10.992Z,17.99
2022-12-31T10:06:22.025Z,17.96
2022-12-31T10:08:38.244Z,17.98
2022-12-31T10:10:47.888Z,17.96
2022-12-31T10:13:27.226Z,18.00
2022-12-31T10:16:01.820Z,17.98
2022-12-31T10:18:13.589Z,18.10
2022-12-31T10:20:43.315Z,18.06
2022-12-31T10:23:09.171Z,18.08
2022-12-31T10:25:41.543Z,18.05
2022-12-31T10:27:51.061Z,18.10
2022-12-31T10:30:00.185Z,18.10
2022-12-31T10:32:16.970Z,18.15
2022-12-31T10:34:27.112Z,18.13
2022-12-31T10:36:46.130Z,18.09
2022-12-31T10:39:00.725Z,18.20
2022-12-31T10:41:39.158Z,18.25
2022-12-31T10:44:10.054Z,18.21
2022-12-31T10:46:26.522Z,18.27
2022-12-31T10:49:17.818Z,18.35
2022-12-31T10:52:00.307Z,18.37
2022-12-31T10:54:19.229Z,18.36
2022-12-31T10:57:23.543Z,18.35
2022-12-31T11:00:12.158Z,18.34
2022-12-31T11:02:32.303Z,18.32
2022-12-31T11:05:05.255Z,18.34
2022-12-31T11:07:47.285Z,18.38
2022-12-31T11:10:25.667Z,18.40
2022-12-31T11:12:43.508Z,18.44
2022-12-31T11:15:02.438Z,18.51
2022-12-31T11:17:17.288Z,18.49
2022-12-31T11:19:25.723Z,18.47
2022-12-31T11:21:56.082Z,18.41
2022-12-31T11:24:04.521Z,18.45
2022-12-31T11:26:16.227Z,18.49
2022-12-31T11:28:31.048Z,18.62
2022-12-31T11:30:38.295Z,18.57
2022-12-31T11:32:50.882Z,18.67
2022-12-31T11:35:26.103Z,18.76
2022-12-31T11:37:34.301Z,18.72
2022-12-31T11:39:48.419Z,18.69
2022-12-31T11:41:53.764Z,18.62
2022-12-31T11:44:06.676Z,18.58
2022-12-31T11:46:42.294Z,18.57
2022-12-31T11:48:53.709Z,18.57
2022-12-31T11:51:06.299Z,18.48
2022-12-31T11:53:35.920Z,18.45
2022-12-31T11:55:54.436Z,18.39
2022-12-31T11:58:01.150Z,18.36
2022-12-31T12:00:14.607Z,18.43
2022-12-31T12:02:26.058Z,18.44
2022-12-31T12:04:29.561Z,18.40
2022-12-31T12:06:35.552Z,18.34
2022-12-31T12:08:40.379Z,18.34
2022-12-31T12:10:45.992Z,18.36
2022-12-31T12:12:49.030Z,18.33
2022-12-31T12:14:55.170Z,18.35
2022-12-31T12:17:04.767Z,18.38
2022-12-31T12:19:09.415Z,18.32
2022-12-31T12:21:13.610Z,18.34
2022-12-31T12:23:18.686Z,18.35
2022-12-31T12:25:23.523Z,18.34
2022-12-31T12:27:29.701Z,18.33
2022-12-31T12:29:35.472Z,18.33
2022-12-31T12:31:39.318Z,18.30
2022-12-31T12:33:45.183Z,18.18
2022-12-31T12:35:48.559Z,18.11
2022-12-31T12:38:00.052Z,17.98
2022-12-31T12:40:06.804Z,17.99
2022-12-31T12:42:14.663Z,17.92
2022-12-31T12:44:17.754Z,17.90
2022-12-31T12:46:31.757Z,17.91
2022-12-31T12:48:39.811Z,17.76
2022-12-31T12:50:46.399Z,17.67
2022-12-31T12:53:01.774Z,17.49
2022-12-31T12:55:11.708Z,17.30
2022-12-31T12:57:17.937Z,17.21
2022-12-31T12:59:44.750Z,17.18
2022-12-31T13:01:51.500Z,17.12
2022-12-31T13:04:33.622Z,17.06
2022-12-31T13:06:38.127Z,17.00
2022-12-31T13:08:57.728Z,17.02
2022-12-31T13:11:18.217Z,17.03
2022-12-31T13:13:26.102Z,17.06
2022-12-31T13:15:33.423Z,17.07
2022-12-31T13:17:54.989Z,17.11
2022-12-31T13:20:03.171Z,17.09
2022-12-31T13:22:12.724Z,17.15
2022-12-31T13:24:26.328Z,17.15
2022-12-31T13:26:33.879Z,17.14
2022-12-31T13:28:40.442Z,17.10
2022-12-31T13:30:46.885Z,17.12
2022-12-31T13:32:54.593Z,17.04
2022-12-31T13:35:14.287Z,17.06
2022-12-31T13:37:27.168Z,17.01
2022-12-31T13:39:32.819Z,17.02
2022-12-31T13:41:39.853Z,16.91
2022-12-31T13:43:50.863Z,16.88
2022-12-31T13:46:04.162Z,16.94
2022-12-31T13:48:09.489Z,16.87
2022-12-31T13:50:17.532Z,16.90
2022-12-31T13:52:28.920Z,16.97
2022-12-31T13:54:39.531Z,17.03
2022-12-31T13:56:44.077Z,17.00
2022-12-31T13:58:53.156Z,17.10
2022-12-31T14:01:01.830Z,17.16
2022-12-31T14:03:11.523Z,17.23
2022-12-31T14:05:17.655Z,17.30
2022-12-31T14:07:29.080Z,17.31
2022-12-31T14:09:37.799Z,17.34
2022-12-31T14:11:55.424Z,17.33
2022-12-31T14:14:09.425Z,17.37
2022-12-31T14:16:21.634Z,17.35
2022-12-31T14:18:28.907Z,17.42
2022-12-31T14:20:42.863Z,17.44
2022-12-31T14:22:51.337Z,17.42
2022-12-31T14:24:55.314Z,17.45
2022-12-31T14:27:00.967Z,17.45
2022-12-31T14:29:12.109Z,17.61
2022-12-31T14:31:23.456Z,17.56
2022-12-31T14:33:40.043Z,17.48
2022-12-31T14:35:56.217Z,17.51
2022-12-31T14:38:07.139Z,17.45
2022-12-31T14:40:19.843Z,17.48
2022-12-31T14:42:29.248Z,17.40
2022-12-31T14:44:47.302Z,17.34
2022-12-31T14:47:01.189Z,17.30
2022-12-31T14:49:17.194Z,17.25
2022-12-31T14:51:20.301Z,17.16
2022-12-31T14:53:28.936Z,17.18
2022-12-31T14:55:35.875Z,17.16
2022-12-31T14:58:25.310Z,17.08
2022-12-31T15:00:24.722Z,17.06
2022-12-31T15:02:29.523Z,17.05
2022-12-31T15:04:35.819Z,16.96
2022-12-31T15:06:53.978Z,16.94
2022-12-31T15:09:08.622Z,16.86
2022-12-31T15:11:41.171Z,16.83
2022-12-31T15:13:59.581Z,16.89
2022-12-31T15:16:14.511Z,16.85
2022-12-31T15:18:31.968Z,16.83
2022-12-31T15:20:46.234Z,16.83
2022-12-31T15:22:49.964Z,16.77
2022-12-31T15:24:54.763Z,16.72
2022-12-31T15:26:59.274Z,16.71
2022-12-31T15:29:06.601Z,16.72
2022-12-31T15:31:19.026Z,16.71
2022-12-31T15:33:29.019Z,16.61
2022-12-31T15:35:33.402Z,16.59
2022-12-31T15:37:37.160Z,16.60
2022-12-31T15:39:42.700Z,16.57
2022-12-31T15:42:35.664Z,16.61
2022-12-31T15:44:19.609Z,16.58
2022-12-31T15:46:25.245Z,16.57
2022-12-31T15:48:32.591Z,16.62
2022-12-31T15:50:38.852Z,16.63
2022-12-31T15:52:44.332Z,16.60
2022-12-31T15:54:50.346Z,16.60
2022-12-31T15:56:55.424Z,16.58
2022-12-31T15:59:00.527Z,16.64
2022-12-31T16:01:10.007Z,16.67
2022-12-31T16:03:21.676Z,16.67
2022-12-31T16:05:26.516Z,16.70
2022-12-31T16:07:29.820Z,16.67
2022-12-31T16:09:34.864Z,16.70
2022-12-31T16:11:41.561Z,16.76
2022-12-31T16:13:48.606Z,16.72
2022-12-31T16:15:53.846Z,16.76
2022-12-31T16:18:04.529Z,16.77
2022-12-31T16:20:23.502Z,16.77
2022-12-31T16:22:28.026Z,16.79
2022-12-31T16:24:35.203Z,16.77
2022-12-31T16:26:45.836Z,16.77
2022-12-31T16:28:50.818Z,16.82
2022-12-31T16:30:59.340Z,16.77
2022-12-31T16:33:04.344Z,16.75
2022-12-31T16:35:23.800Z,16.70
2022-12-31T16:37:27.564Z,16.66
2022-12-31T16:39:32.737Z,16.67
2022-12-31T16:41:43.953Z,16.66
2022-12-31T16:43:48.618Z,16.58
2022-12-31T16:45:53.207Z,16.57
2022-12-31T16:47:56.271Z,16.62
2022-12-31T16:50:04.069Z,16.65
2022-12-31T16:52:09.802Z,16.64
2022-12-31T16:54:20.857Z,16.59
2022-12-31T16:56:30.055Z,16.56
2022-12-31T16:58:34.964Z,16.58
2022-12-31T17:00:38.850Z,16.57
2022-12-31T17:02:44.456Z,16.55
2022-12-31T17:04:55.327Z,16.53
2022-12-31T17:07:29.066Z,16.57
2022-12-31T17:09:34.370Z,16.57
2022-12-31T17:11:45.195Z,16.53
2022-12-31T17:13:55.572Z,16.53
2022-12-31T17:15:59.262Z,16.56
2022-12-31T17:18:03.925Z,16.53
2022-12-31T17:20:10.146Z,16.53
2022-12-31T17:22:24.135Z,16.53
2022-12-31T17:24:31.468Z,16.57
2022-12-31T17:26:37.477Z,16.57
2022-12-31T17:28:43.719Z,16.59
2022-12-31T17:30:46.844Z,16.59
2022-12-31T17:32:51.741Z,16.53
2022-12-31T17:34:57.860Z,16.55
2022-12-31T17:37:19.306Z,16.55
2022-12-31T17:39:24.022Z,16.56
2022-12-31T17:41:27.831Z,16.55
2022-12-31T17:43:35.183Z,16.60
2022-12-31T17:45:39.601Z,16.52
2022-12-31T17:47:48.287Z,16.48
2022-12-31T17:49:57.452Z,16.52
2022-12-31T17:52:02.100Z,16.54
2022-12-31T17:54:11.224Z,16.54
2022-12-31T17:56:18.703Z,16.53
2022-12-31T17:58:29.699Z,16.54
2022-12-31T18:00:33.867Z,16.55
2022-12-31T18:02:37.302Z,16.55
2022-12-31T18:04:40.428Z,16.55
2022-12-31T18:06:43.713Z,16.59
2022-12-31T18:08:49.135Z,16.61
2022-12-31T18:10:52.554Z,16.57
2022-12-31T18:12:56.749Z,16.57
2022-12-31T18:15:00.200Z,16.60
2022-12-31T18:17:05.686Z,16.58
2022-12-31T18:19:18.651Z,16.56
2022-12-31T18:21:36.709Z,16.57
2022-12-31T18:23:43.133Z,16.59
2022-12-31T18:25:47.515Z,16.52
2022-12-31T18:27:51.515Z,16.55
2022-12-31T18:29:59.099Z,16.49
2022-12-31T18:32:07.634Z,16.51
2022-12-31T18:34:13.149Z,16.48
2022-12-31T18:36:20.076Z,16.53
2022-12-31T18:38:23.635Z,16.48
2022-12-31T18:40:26.987Z,16.49
2022-12-31T18:42:31.556Z,16.51
2022-12-31T18:44:35.989Z,16.46
2022-12-31T18:46:39.008Z,16.50
2022-12-31T18:48:42.654Z,16.56
2022-12-31T18:50:45.857Z,16.52
2022-12-31T18:52:48.777Z,16.55
2022-12-31T18:54:51.765Z,16.49
2022-12-31T18:56:57.171Z,16.49
2022-12-31T18:59:02.539Z,16.47
2022-12-31T19:01:06.363Z,16.47
2022-12-31T19:03:14.064Z,16.51
2022-12-31T19:05:24.808Z,16.50
2022-12-31T19:07:27.716Z,16.46
2022-12-31T19:09:51.491Z,16.43
2022-12-31T19:11:54.808Z,16.49
2022-12-31T19:13:57.770Z,16.45
2022-12-31T19:16:02.216Z,16.44
2022-12-31T19:18:05.549Z,16.44
2022-12-31T19:20:11.029Z,16.42
2022-12-31T19:22:16.407Z,16.47
2022-12-31T19:24:21.782Z,16.47
2022-12-31T19:26:24.732Z,16.42
2022-12-31T19:28:28.915Z,16.45
2022-12-31T19:30:36.542Z,16.51
2022-12-31T19:32:40.955Z,16.54
2022-12-31T19:34:43.985Z,16.51
2022-12-31T19:36:47.404Z,16.51
2022-12-31T19:38:50.415Z,16.54
2022-12-31T19:40:55.594Z,16.54
2022-12-31T19:42:58.762Z,16.51
2022-12-31T19:45:02.107Z,16.46
2022-12-31T19:47:05.154Z,16.45
2022-12-31T19:49:13.063Z,16.39
2022-12-31T19:51:18.466Z,16.38
2022-12-31T19:53:24.331Z,16.41
2022-12-31T19:55:27.997Z,16.43
2022-12-31T19:57:31.445Z,16.41
2022-12-31T19:59:34.478Z,16.47
2022-12-31T20:01:38.104Z,16.48
2022-12-31T20:03:41.250Z,16.48
2022-12-31T20:05:47.235Z,16.47
2022-12-31T20:07:50.597Z,16.48
2022-12-31T20:09:53.504Z,16.48
2022-12-31T20:11:56.689Z,16.49
2022-12-31T20:13:59.812Z,16.53
2022-12-31T20:16:02.802Z,16.58
2022-12-31T20:18:07.468Z,16.55
2022-12-31T20:20:11.155Z,16.58
2022-12-31T20:22:15.658Z,16.55
2022-12-31T20:24:27.629Z,16.53
2022-12-31T20:26:30.980Z,16.54
2022-12-31T20:28:34.063Z,16.54
2022-12-31T20:30:39.509Z,16.60
2022-12-31T20:32:42.756Z,16.58
2022-12-31T20:34:45.733Z,16.58
2022-12-31T20:36:49.096Z,16.54
2022-12-31T20:38:54.391Z,16.54
2022-12-31T20:40:57.316Z,16.55
2022-12-31T20:43:00.754Z,16.54
2022-12-31T20:45:03.709Z,16.58
2022-12-31T20:47:06.885Z,16.54
2022-12-31T20:49:11.309Z,16.53
2022-12-31T20:51:15.170Z,16.56
2022-12-31T20:53:18.249Z,16.54
2022-12-31T20:55:25.262Z,16.56
2022-12-31T20:57:33.456Z,16.62
2022-12-31T20:59:37.144Z,16.61
2022-12-31T21:02:19.241Z,16.65
2022-12-31T21:04:05.968Z,16.59
2022-12-31T21:06:10.480Z,16.60
2022-12-31T21:08:13.541Z,16.59
2022-12-31T21:10:17.157Z,16.60
2022-12-31T21:12:39.120Z,16.62
2022-12-31T21:14:44.914Z,16.66
2022-12-31T21:16:48.405Z,16.64
2022-12-31T21:18:52.695Z,16.61
2022-12-31T21:20:55.668Z,16.62
2022-12-31T21:22:59.040Z,16.62
2022-12-31T21:25:03.823Z,16.63
2022-12-31T21:27:06.917Z,16.62
2022-12-31T21:29:11.166Z,16.62
2022-12-31T21:31:15.960Z,16.63
2022-12-31T21:33:18.979Z,16.66
2022-12-31T21:35:43.470Z,16.73
2022-12-31T21:37:58.865Z,16.81
2022-12-31T21:40:03.798Z,16.77
2022-12-31T21:42:07.123Z,16.77
2022-12-31T21:44:11.894Z,16.78
2022-12-31T21:46:15.307Z,16.79
2022-12-31T21:48:20.271Z,16.73
2022-12-31T21:50:23.512Z,16.74
2022-12-31T21:52:30.820Z,16.74
2022-12-31T21:54:51.751Z,16.72
2022-12-31T21:56:54.734Z,16.77
2022-12-31T21:59:17.059Z,16.75
2022-12-31T22:01:40.709Z,16.76
2022-12-31T22:03:44.604Z,16.70
2022-12-31T22:05:50.685Z,16.69
2022-12-31T22:07:54.090Z,16.68
2022-12-31T22:09:57.245Z,16.66
2022-12-31T22:12:00.301Z,16.67
2022-12-31T22:14:03.311Z,16.68
2022-12-31T22:16:06.986Z,16.63
2022-12-31T22:18:12.868Z,16.65
2022-12-31T22:20:31.402Z,16.60
2022-12-31T22:22:34.444Z,16.59
2022-12-31T22:24:38.857Z,16.59
2022-12-31T22:26:46.455Z,16.57
2022-12-31T22:28:49.867Z,16.51
2022-12-31T22:30:53.265Z,16.53
2022-12-31T22:32:56.367Z,16.51
2022-12-31T22:35:02.125Z,16.54
2022-12-31T22:37:20.425Z,16.55
2022-12-31T22:39:43.524Z,16.53
2022-12-31T22:41:47.939Z,16.55
2022-12-31T22:43:55.974Z,16.57
2022-12-31T22:46:07.888Z,16.53
2022-12-31T22:48:11.021Z,16.57
2022-12-31T22:50:15.522Z,16.54
2022-12-31T22:52:19.712Z,16.54
2022-12-31T22:54:22.816Z,16.59
2022-12-31T22:56:25.813Z,16.51
2022-12-31T22:58:28.768Z,16.56
2022-12-31T23:00:42.706Z,16.57
2022-12-31T23:02:48.343Z,16.64
2022-12-31T23:04:51.280Z,16.65
2022-12-31T23:06:55.806Z,16.62
2022-12-31T23:09:16.153Z,16.62
2022-12-31T23:11:19.097Z,16.73
2022-12-31T23:13:45.900Z,16.77
2022-12-31T23:16:10.638Z,16.82
2022-12-31T23:18:33.990Z,16.84
2022-12-31T23:20:54.878Z,16.85
2022-12-31T23:23:11.545Z,16.88
2022-12-31T23:25:14.484Z,16.87
2022-12-31T23:27:17.570Z,16.90
2022-12-31T23:29:20.557Z,16.94
2022-12-31T23:31:26.077Z,16.91
2022-12-31T23:33:29.567Z,16.92
2022-12-31T23:35:32.541Z,16.89
2022-12-31T23:37:35.651Z,16.88
2022-12-31T23:39:40.074Z,16.94
2022-12-31T23:41:43.587Z,16.93
2022-12-31T23:43:47.238Z,16.91
2022-12-31T23:45:50.787Z,16.89
2022-12-31T23:47:54.131Z,16.94
2022-12-31T23:49:57.316Z,16.93
2022-12-31T23:52:00.271Z,16.99
2022-12-31T23:54:03.311Z,16.95
2022-12-31T23:56:15.029Z,16.97
2022-12-31T23:58:22.423Z,16.96
